Accueil
METAR-TAF:

METAR-TAF

Aéroports :

Aéroport de Lugano

Lugano, Suisse

latitude: 46-00N, longitude: 008-58E, altitude: 273 m

Observation

Le bulletin a été fait il y a 14 minutes, à 02:20 UTC
Vent 1 kt de direction variable
Température 2°C
Humidité 80%
Pression 1018 hPa
Visibilité 10 km ou plus

METAR: LSZA 170220Z AUTO VRB01KT 9999 NCD 02/M01 Q1018

Heure: 04:34 (02:34 UTC)

Prévision

Le bulletin a été fait il y a 12 heures et 9 minutes, à 14:25 UTC
Prévision valable du 16 à 15 UTC au 16 à 24 UTC
Vent 4 kt de sud
Visibilité 10 km ou plus
Quelques nuages à une hauteur de 5000 ft
Nuages fragmentés à une hauteur de 8500 ft
Probabilité 30% :
Temporairement
du 16 à 15 UTC au 16 à 17 UTC
Quelques nuages à une hauteur de 7000 ft, Cumulus congestus.
faibles averses de pluie

TAF: LSZA 161425Z 1615/1624 19004KT 9999 FEW050 BKN085 PROB30 TEMPO 1615/1617 -SHRA FEW070TCU

Observations et prévisions météorologiques de plus de 4000 aéroports (messages METAR et TAF).

Les stations disponibles sont représentées par des disques jaunes et rouges sur la carte.

Passer la souris dessus pour voir le nom de la station.

Cliquer dessus pour voir les observations et prévisions météorologiques.

Pour changer de carte: cliquez sur les boutons verts avec une croix noire pour zoomer, sur le bouton vert avec un tiret pour effectuer un zoom arrière, ou sur les flèches vertes pour les cartes adjacentes.


METAR-TAF: